sensor_id;sensor_type;location;lat;lon;timestamp;pressure;altitude;pressure_sealevel;temperature;humidity
32759;BME280;19125;52.360;9.974;2023-04-05T00:00:37;87540.84;;;-145.17;53.96
32759;BME280;19125;52.360;9.974;2023-04-05T00:03:03;87534.88;;;-145.17;53.82
32759;BME280;19125;52.360;9.974;2023-04-05T00:05:29;87574.56;;;-145.17;54.63
32759;BME280;19125;52.360;9.974;2023-04-05T00:07:58;87616.25;;;-145.17;54.95
32759;BME280;19125;52.360;9.974;2023-04-05T00:10:25;87624.22;;;-145.17;54.99
32759;BME280;19125;52.360;9.974;2023-04-05T00:12:51;87618.25;;;-145.17;55.43
32759;BME280;19125;52.360;9.974;2023-04-05T00:15:16;87655.97;;;-145.17;55.77
32759;BME280;19125;52.360;9.974;2023-04-05T00:17:42;87669.88;;;-145.17;55.56
32759;BME280;19125;52.360;9.974;2023-04-05T00:20:09;87731.41;;;-145.17;55.92
32759;BME280;19125;52.360;9.974;2023-04-05T00:22:39;87655.97;;;-145.17;55.99
32759;BME280;19125;52.360;9.974;2023-04-05T00:25:04;87721.47;;;-145.17;55.98
32759;BME280;19125;52.360;9.974;2023-04-05T00:27:30;87715.53;;;-145.17;55.85
32759;BME280;19125;52.360;9.974;2023-04-05T00:29:55;87719.50;;;-145.17;56.32
32759;BME280;19125;52.360;9.974;2023-04-05T00:32:21;87701.63;;;-145.17;56.28
32759;BME280;19125;52.360;9.974;2023-04-05T00:34:47;87699.63;;;-145.17;56.06
32759;BME280;19125;52.360;9.974;2023-04-05T00:37:12;87747.28;;;-145.17;56.05
32759;BME280;19125;52.360;9.974;2023-04-05T00:39:38;87725.44;;;-145.17;56.09
32759;BME280;19125;52.360;9.974;2023-04-05T00:42:04;87687.72;;;-145.17;56.11
32759;BME280;19125;52.360;9.974;2023-04-05T00:44:30;87679.78;;;-145.17;55.86
32759;BME280;19125;52.360;9.974;2023-04-05T00:47:04;87632.16;;;-145.17;55.64
32759;BME280;19125;52.360;9.974;2023-04-05T00:49:31;87650.00;;;-145.17;55.58
32759;BME280;19125;52.360;9.974;2023-04-05T00:51:57;87640.09;;;-145.17;55.30
32759;BME280;19125;52.360;9.974;2023-04-05T00:54:27;87648.03;;;-145.17;55.37
32759;BME280;19125;52.360;9.974;2023-04-05T00:56:55;87663.91;;;-145.17;55.30
32759;BME280;19125;52.360;9.974;2023-04-05T00:59:21;87667.88;;;-145.17;55.32
32759;BME280;19125;52.360;9.974;2023-04-05T01:01:49;87671.84;;;-145.17;55.74
32759;BME280;19125;52.360;9.974;2023-04-05T01:04:32;87719.50;;;-145.17;55.76
32759;BME280;19125;52.360;9.974;2023-04-05T01:07:45;87681.78;;;-145.17;56.03
32759;BME280;19125;52.360;9.974;2023-04-05T01:10:15;87687.72;;;-145.17;56.31
32759;BME280;19125;52.360;9.974;2023-04-05T01:12:42;87707.59;;;-145.17;56.15
32759;BME280;19125;52.360;9.974;2023-04-05T01:15:08;87745.31;;;-145.17;56.05
32759;BME280;19125;52.360;9.974;2023-04-05T01:17:35;87739.34;;;-145.17;56.37
32759;BME280;19125;52.360;9.974;2023-04-05T01:20:06;87743.31;;;-145.17;56.38
32759;BME280;19125;52.360;9.974;2023-04-05T01:31:12;87761.19;;;-145.17;56.85
32759;BME280;19125;52.360;9.974;2023-04-05T01:34:01;87773.09;;;-145.17;56.72
32759;BME280;19125;52.360;9.974;2023-04-05T01:36:50;87848.53;;;-145.17;56.83
32759;BME280;19125;52.360;9.974;2023-04-05T01:39:19;87788.97;;;-145.17;56.67
32759;BME280;19125;52.360;9.974;2023-04-05T01:41:45;87806.84;;;-145.17;57.22
32759;BME280;19125;52.360;9.974;2023-04-05T01:44:11;87794.94;;;-145.17;57.10
32759;BME280;19125;52.360;9.974;2023-04-05T01:46:36;87812.78;;;-145.17;57.42
32759;BME280;19125;52.360;9.974;2023-04-05T01:49:02;87838.59;;;-145.17;57.40
32759;BME280;19125;52.360;9.974;2023-04-05T01:51:28;87864.41;;;-145.17;57.55
32759;BME280;19125;52.360;9.974;2023-04-05T01:53:53;87870.38;;;-145.17;57.90
32759;BME280;19125;52.360;9.974;2023-04-05T01:56:18;87870.38;;;-145.17;58.08
32759;BME280;19125;52.360;9.974;2023-04-05T01:58:44;87914.03;;;-145.17;58.20
32759;BME280;19125;52.360;9.974;2023-04-05T02:01:09;87916.03;;;-145.17;58.34
32759;BME280;19125;52.360;9.974;2023-04-05T02:03:35;87935.88;;;-145.17;58.58
32759;BME280;19125;52.360;9.974;2023-04-05T02:06:00;87969.63;;;-145.17;58.73
32759;BME280;19125;52.360;9.974;2023-04-05T02:08:26;87929.91;;;-145.17;58.71
32759;BME280;19125;52.360;9.974;2023-04-05T02:10:52;87991.47;;;-145.17;58.68
32759;BME280;19125;52.360;9.974;2023-04-05T02:13:18;87969.63;;;-145.17;59.08
32759;BME280;19125;52.360;9.974;2023-04-05T02:15:49;88025.22;;;-145.17;59.17
32759;BME280;19125;52.360;9.974;2023-04-05T02:18:15;88013.31;;;-145.17;59.23
32759;BME280;19125;52.360;9.974;2023-04-05T02:20:47;87989.47;;;-145.17;59.31
32759;BME280;19125;52.360;9.974;2023-04-05T02:23:12;88076.84;;;-145.17;59.54
32759;BME280;19125;52.360;9.974;2023-04-05T02:25:37;88033.16;;;-145.17;59.60
32759;BME280;19125;52.360;9.974;2023-04-05T02:28:03;88074.84;;;-145.17;59.61
32759;BME280;19125;52.360;9.974;2023-04-05T02:30:28;88049.03;;;-145.17;59.84
32759;BME280;19125;52.360;9.974;2023-04-05T02:32:54;88098.66;;;-145.17;59.66
32759;BME280;19125;52.360;9.974;2023-04-05T02:35:20;88132.41;;;-145.17;59.80
32759;BME280;19125;52.360;9.974;2023-04-05T02:37:46;88098.66;;;-145.17;59.56
32759;BME280;19125;52.360;9.974;2023-04-05T02:40:13;88090.72;;;-145.17;59.78
32759;BME280;19125;52.360;9.974;2023-04-05T02:42:39;88100.66;;;-145.17;59.80
32759;BME280;19125;52.360;9.974;2023-04-05T02:45:04;88104.63;;;-145.17;59.88
32759;BME280;19125;52.360;9.974;2023-04-05T02:47:30;88108.59;;;-145.17;59.58
32759;BME280;19125;52.360;9.974;2023-04-05T02:49:56;88098.66;;;-145.17;59.73
32759;BME280;19125;52.360;9.974;2023-04-05T02:52:21;88108.59;;;-145.17;59.82
32759;BME280;19125;52.360;9.974;2023-04-05T02:54:47;88120.50;;;-145.17;60.19
32759;BME280;19125;52.360;9.974;2023-04-05T02:57:13;88112.56;;;-145.17;60.21
32759;BME280;19125;52.360;9.974;2023-04-05T02:59:38;88160.22;;;-145.17;59.93
32759;BME280;19125;52.360;9.974;2023-04-05T03:02:05;88114.56;;;-145.17;59.87
32759;BME280;19125;52.360;9.974;2023-04-05T03:04:30;88086.75;;;-145.17;60.06
32759;BME280;19125;52.360;9.974;2023-04-05T03:06:59;88160.22;;;-145.17;59.83
32759;BME280;19125;52.360;9.974;2023-04-05T03:09:27;88120.50;;;-145.17;59.98
32759;BME280;19125;52.360;9.974;2023-04-05T03:11:53;88150.28;;;-145.17;60.31
32759;BME280;19125;52.360;9.974;2023-04-05T03:14:18;88160.22;;;-145.17;59.85
32759;BME280;19125;52.360;9.974;2023-04-05T03:16:43;88144.34;;;-145.17;60.39
32759;BME280;19125;52.360;9.974;2023-04-05T03:19:11;88132.41;;;-145.17;60.44
32759;BME280;19125;52.360;9.974;2023-04-05T03:21:37;88190.00;;;-145.17;60.51
32759;BME280;19125;52.360;9.974;2023-04-05T03:24:04;88168.16;;;-145.17;60.56
32759;BME280;19125;52.360;9.974;2023-04-05T03:26:29;88195.94;;;-145.17;60.49
32759;BME280;19125;52.360;9.974;2023-04-05T03:28:55;88160.22;;;-145.17;60.88
32759;BME280;19125;52.360;9.974;2023-04-05T03:31:20;88209.84;;;-145.17;60.99
32759;BME280;19125;52.360;9.974;2023-04-05T03:33:46;88197.94;;;-145.17;60.80
32759;BME280;19125;52.360;9.974;2023-04-05T03:36:11;88237.66;;;-145.17;60.85
32759;BME280;19125;52.360;9.974;2023-04-05T03:38:43;88261.47;;;-145.17;61.15
32759;BME280;19125;52.360;9.974;2023-04-05T03:41:08;88251.53;;;-145.17;61.06
32759;BME280;19125;52.360;9.974;2023-04-05T03:43:33;88160.22;;;-145.17;61.33
32759;BME280;19125;52.360;9.974;2023-04-05T03:46:00;88239.63;;;-145.17;61.41
32759;BME280;19125;52.360;9.974;2023-04-05T03:48:25;88299.19;;;-145.17;61.30
32759;BME280;19125;52.360;9.974;2023-04-05T03:50:51;88307.13;;;-145.17;61.39
32759;BME280;19125;52.360;9.974;2023-04-05T03:53:16;88299.19;;;-145.17;61.41
32759;BME280;19125;52.360;9.974;2023-04-05T03:55:42;88297.22;;;-145.17;61.52
32759;BME280;19125;52.360;9.974;2023-04-05T03:58:14;88283.31;;;-145.17;61.49
32759;BME280;19125;52.360;9.974;2023-04-05T04:00:40;88303.16;;;-145.17;61.48
32759;BME280;19125;52.360;9.974;2023-04-05T04:03:05;88327.00;;;-145.17;61.35
32759;BME280;19125;52.360;9.974;2023-04-05T04:05:30;88348.81;;;-145.17;61.80
32759;BME280;19125;52.360;9.974;2023-04-05T04:07:57;88340.88;;;-145.17;61.78
32759;BME280;19125;52.360;9.974;2023-04-05T04:10:22;88319.06;;;-145.17;61.61
32759;BME280;19125;52.360;9.974;2023-04-05T04:12:47;88362.72;;;-145.17;62.14
32759;BME280;19125;52.360;9.974;2023-04-05T04:15:13;88378.63;;;-145.17;62.21
32759;BME280;19125;52.360;9.974;2023-04-05T04:17:38;88384.56;;;-145.17;62.46
32759;BME280;19125;52.360;9.974;2023-04-05T04:20:04;88426.25;;;-145.17;62.29
32759;BME280;19125;52.360;9.974;2023-04-05T04:22:35;88422.28;;;-145.17;62.67
32759;BME280;19125;52.360;9.974;2023-04-05T04:25:11;88418.31;;;-145.17;62.59
32759;BME280;19125;52.360;9.974;2023-04-05T04:27:40;88404.41;;;-145.17;62.63
32759;BME280;19125;52.360;9.974;2023-04-05T04:30:11;88414.34;;;-145.17;62.81
32759;BME280;19125;52.360;9.974;2023-04-05T04:32:37;88428.25;;;-145.17;62.57
32759;BME280;19125;52.360;9.974;2023-04-05T04:35:25;88450.09;;;-145.17;62.94
32759;BME280;19125;52.360;9.974;2023-04-05T04:38:05;88473.91;;;-145.17;62.72
32759;BME280;19125;52.360;9.974;2023-04-05T04:40:33;88442.16;;;-145.17;62.49
32759;BME280;19125;52.360;9.974;2023-04-05T04:43:08;88454.06;;;-145.17;62.47
32759;BME280;19125;52.360;9.974;2023-04-05T04:45:44;88450.09;;;-145.17;62.55
32759;BME280;19125;52.360;9.974;2023-04-05T04:48:12;88430.22;;;-145.17;62.65
32759;BME280;19125;52.360;9.974;2023-04-05T04:50:41;88446.13;;;-145.17;62.89
32759;BME280;19125;52.360;9.974;2023-04-05T04:53:08;88450.09;;;-145.17;62.61
32759;BME280;19125;52.360;9.974;2023-04-05T04:55:33;88414.34;;;-145.17;62.42
32759;BME280;19125;52.360;9.974;2023-04-05T04:58:00;88414.34;;;-145.17;62.72
32759;BME280;19125;52.360;9.974;2023-04-05T05:00:28;88436.19;;;-145.17;63.15
32759;BME280;19125;52.360;9.974;2023-04-05T05:02:55;88471.94;;;-145.17;62.83
32759;BME280;19125;52.360;9.974;2023-04-05T05:05:20;88462.00;;;-145.17;62.81
32759;BME280;19125;52.360;9.974;2023-04-05T05:07:50;88465.97;;;-145.17;62.98
32759;BME280;19125;52.360;9.974;2023-04-05T05:10:16;88473.91;;;-145.17;62.78
32759;BME280;19125;52.360;9.974;2023-04-05T05:12:43;88432.22;;;-145.17;62.76
32759;BME280;19125;52.360;9.974;2023-04-05T05:15:08;88430.22;;;-145.17;63.05
32759;BME280;19125;52.360;9.974;2023-04-05T05:17:34;88465.97;;;-145.17;63.02
32759;BME280;19125;52.360;9.974;2023-04-05T05:20:00;88438.19;;;-145.17;62.88
32759;BME280;19125;52.360;9.974;2023-04-05T05:22:26;88477.88;;;-145.17;63.20
32759;BME280;19125;52.360;9.974;2023-04-05T05:24:52;88408.41;;;-145.17;63.00
32759;BME280;19125;52.360;9.974;2023-04-05T05:27:18;88440.16;;;-145.17;62.67
32759;BME280;19125;52.360;9.974;2023-04-05T05:29:43;88471.94;;;-145.17;62.66
32759;BME280;19125;52.360;9.974;2023-04-05T05:32:09;88398.47;;;-145.17;62.40
32759;BME280;19125;52.360;9.974;2023-04-05T05:34:39;88358.75;;;-145.17;62.82
32759;BME280;19125;52.360;9.974;2023-04-05T05:37:04;88354.78;;;-145.17;62.13
32759;BME280;19125;52.360;9.974;2023-04-05T05:39:30;88342.88;;;-145.17;62.10
32759;BME280;19125;52.360;9.974;2023-04-05T05:41:56;88330.97;;;-145.17;62.07
32759;BME280;19125;52.360;9.974;2023-04-05T05:44:21;88307.13;;;-145.17;61.89
32759;BME280;19125;52.360;9.974;2023-04-05T05:46:46;88317.06;;;-145.17;62.10
32759;BME280;19125;52.360;9.974;2023-04-05T05:49:12;88303.16;;;-145.17;62.22
32759;BME280;19125;52.360;9.974;2023-04-05T05:51:37;88303.16;;;-145.17;61.89
32759;BME280;19125;52.360;9.974;2023-04-05T05:54:03;88285.28;;;-145.17;62.09
32759;BME280;19125;52.360;9.974;2023-04-05T05:56:28;88283.31;;;-145.17;61.90
32759;BME280;19125;52.360;9.974;2023-04-05T05:58:53;88269.41;;;-145.17;61.68
32759;BME280;19125;52.360;9.974;2023-04-05T06:01:19;88309.13;;;-145.17;61.48
32759;BME280;19125;52.360;9.974;2023-04-05T06:03:47;88245.59;;;-145.17;61.42
32759;BME280;19125;52.360;9.974;2023-04-05T06:06:13;88213.81;;;-145.17;61.24
32759;BME280;19125;52.360;9.974;2023-04-05T06:08:38;88188.00;;;-145.17;61.30
32759;BME280;19125;52.360;9.974;2023-04-05T06:11:04;88162.19;;;-145.17;61.46
32759;BME280;19125;52.360;9.974;2023-04-05T06:13:30;88158.22;;;-145.17;60.83
32759;BME280;19125;52.360;9.974;2023-04-05T06:15:56;88144.34;;;-145.17;60.58
32759;BME280;19125;52.360;9.974;2023-04-05T06:18:21;88096.69;;;-145.17;60.38
32759;BME280;19125;52.360;9.974;2023-04-05T06:20:47;88098.66;;;-145.17;60.32
32759;BME280;19125;52.360;9.974;2023-04-05T06:23:12;88100.66;;;-145.17;60.13
32759;BME280;19125;52.360;9.974;2023-04-05T06:25:38;88031.16;;;-145.17;59.77
32759;BME280;19125;52.360;9.974;2023-04-05T06:28:05;88013.31;;;-145.17;59.86
32759;BME280;19125;52.360;9.974;2023-04-05T06:30:32;87973.59;;;-145.17;59.52
32759;BME280;19125;52.360;9.974;2023-04-05T06:32:58;87943.81;;;-145.17;59.42
32759;BME280;19125;52.360;9.974;2023-04-05T06:35:24;87929.91;;;-145.17;59.44
32759;BME280;19125;52.360;9.974;2023-04-05T06:37:51;87920.00;;;-145.17;59.03
32759;BME280;19125;52.360;9.974;2023-04-05T06:40:17;87896.16;;;-145.17;59.15
32759;BME280;19125;52.360;9.974;2023-04-05T06:42:43;87953.75;;;-145.17;58.93
32759;BME280;19125;52.360;9.974;2023-04-05T06:45:09;87868.38;;;-145.17;58.91
32759;BME280;19125;52.360;9.974;2023-04-05T06:47:36;87935.88;;;-145.17;58.75
32759;BME280;19125;52.360;9.974;2023-04-05T06:50:03;87822.72;;;-145.17;58.50
32759;BME280;19125;52.360;9.974;2023-04-05T06:52:28;87856.47;;;-145.17;58.64
32759;BME280;19125;52.360;9.974;2023-04-05T06:54:54;87830.66;;;-145.17;58.37
32759;BME280;19125;52.360;9.974;2023-04-05T06:57:20;87781.03;;;-145.17;57.99
32759;BME280;19125;52.360;9.974;2023-04-05T06:59:46;87767.13;;;-145.17;58.10
32759;BME280;19125;52.360;9.974;2023-04-05T07:02:11;87777.06;;;-145.17;58.08
32759;BME280;19125;52.360;9.974;2023-04-05T07:04:37;87747.28;;;-145.17;57.47
32759;BME280;19125;52.360;9.974;2023-04-05T07:07:03;87687.72;;;-145.17;57.72
32759;BME280;19125;52.360;9.974;2023-04-05T07:09:31;87689.72;;;-145.17;56.96
32759;BME280;19125;52.360;9.974;2023-04-05T07:12:01;87657.94;;;-145.17;56.45
32759;BME280;19125;52.360;9.974;2023-04-05T07:14:32;87604.34;;;-145.17;56.11
32759;BME280;19125;52.360;9.974;2023-04-05T07:16:58;87582.53;;;-145.17;55.85
32759;BME280;19125;52.360;9.974;2023-04-05T07:19:23;87566.63;;;-145.17;55.82
32759;BME280;19125;52.360;9.974;2023-04-05T07:21:49;87544.81;;;-145.17;55.11
32759;BME280;19125;52.360;9.974;2023-04-05T07:24:14;87517.00;;;-145.17;55.09
32759;BME280;19125;52.360;9.974;2023-04-05T07:26:40;87457.47;;;-145.17;54.74
32759;BME280;19125;52.360;9.974;2023-04-05T07:29:05;87499.16;;;-145.17;54.33
32759;BME280;19125;52.360;9.974;2023-04-05T07:31:35;87445.56;;;-145.17;54.35
32759;BME280;19125;52.360;9.974;2023-04-05T07:34:01;87435.63;;;-145.17;54.25
32759;BME280;19125;52.360;9.974;2023-04-05T07:36:27;87423.72;;;-145.17;53.62
32759;BME280;19125;52.360;9.974;2023-04-05T07:38:58;87407.84;;;-145.17;53.25
32759;BME280;19125;52.360;9.974;2023-04-05T07:41:24;87376.06;;;-145.17;52.99
32759;BME280;19125;52.360;9.974;2023-04-05T07:43:50;87372.09;;;-145.17;53.41
32759;BME280;19125;52.360;9.974;2023-04-05T07:46:16;87346.31;;;-145.17;53.66
32759;BME280;19125;52.360;9.974;2023-04-05T07:48:41;87338.38;;;-145.17;52.95
32759;BME280;19125;52.360;9.974;2023-04-05T07:51:08;87284.78;;;-145.17;53.04
32759;BME280;19125;52.360;9.974;2023-04-05T07:53:36;87304.63;;;-145.17;52.21
32759;BME280;19125;52.360;9.974;2023-04-05T07:56:05;87237.13;;;-145.17;51.11
32759;BME280;19125;52.360;9.974;2023-04-05T07:58:31;87227.22;;;-145.17;51.09
32759;BME280;19125;52.360;9.974;2023-04-05T08:01:03;87173.63;;;-145.17;50.36
32759;BME280;19125;52.360;9.974;2023-04-05T08:03:29;87133.91;;;-145.17;49.64
32759;BME280;19125;52.360;9.974;2023-04-05T08:05:55;87092.25;;;-145.17;48.78
32759;BME280;19125;52.360;9.974;2023-04-05T08:08:23;87048.56;;;-145.17;48.13
32759;BME280;19125;52.360;9.974;2023-04-05T08:10:48;87096.22;;;-145.17;47.84
32759;BME280;19125;52.360;9.974;2023-04-05T08:13:13;87058.50;;;-145.17;47.91
32759;BME280;19125;52.360;9.974;2023-04-05T08:15:39;87008.88;;;-145.17;47.79
32759;BME280;19125;52.360;9.974;2023-04-05T08:18:04;87032.69;;;-145.17;47.25
32759;BME280;19125;52.360;9.974;2023-04-05T08:20:30;87038.66;;;-145.17;47.46
32759;BME280;19125;52.360;9.974;2023-04-05T08:22:55;87076.34;;;-145.17;47.83
32759;BME280;19125;52.360;9.974;2023-04-05T08:25:21;87044.59;;;-145.17;47.66
32759;BME280;19125;52.360;9.974;2023-04-05T08:27:46;87024.75;;;-145.17;47.71
32759;BME280;19125;52.360;9.974;2023-04-05T08:30:12;87018.81;;;-145.17;47.24
32759;BME280;19125;52.360;9.974;2023-04-05T08:32:37;87008.88;;;-145.17;46.77
32759;BME280;19125;52.360;9.974;2023-04-05T08:35:02;86973.16;;;-145.17;46.13
32759;BME280;19125;52.360;9.974;2023-04-05T08:37:28;86989.03;;;-145.17;46.16
32759;BME280;19125;52.360;9.974;2023-04-05T08:39:57;87004.91;;;-145.17;45.26
32759;BME280;19125;52.360;9.974;2023-04-05T08:42:28;86933.44;;;-145.17;45.29
32759;BME280;19125;52.360;9.974;2023-04-05T08:44:56;86955.28;;;-145.17;44.89
32759;BME280;19125;52.360;9.974;2023-04-05T08:47:22;86941.38;;;-145.17;44.07
32759;BME280;19125;52.360;9.974;2023-04-05T08:49:48;86943.38;;;-145.17;44.43
32759;BME280;19125;52.360;9.974;2023-04-05T08:52:13;86897.72;;;-145.17;43.45
32759;BME280;19125;52.360;9.974;2023-04-05T08:54:39;86832.22;;;-145.17;42.23
32759;BME280;19125;52.360;9.974;2023-04-05T08:57:06;86846.13;;;-145.17;41.12
32759;BME280;19125;52.360;9.974;2023-04-05T08:59:32;86828.25;;;-145.17;39.76
32759;BME280;19125;52.360;9.974;2023-04-05T09:02:07;86814.38;;;-145.17;38.67
32759;BME280;19125;52.360;9.974;2023-04-05T09:04:36;86834.22;;;-145.17;38.85
32759;BME280;19125;52.360;9.974;2023-04-05T09:07:05;86818.34;;;-145.17;38.99
32759;BME280;19125;52.360;9.974;2023-04-05T09:09:34;86814.38;;;-145.17;38.71
32759;BME280;19125;52.360;9.974;2023-04-05T09:12:03;86812.38;;;-145.17;39.45
32759;BME280;19125;52.360;9.974;2023-04-05T09:14:29;86834.22;;;-145.17;39.29
32759;BME280;19125;52.360;9.974;2023-04-05T09:16:57;86812.38;;;-145.17;38.25
32759;BME280;19125;52.360;9.974;2023-04-05T09:19:26;86790.56;;;-145.17;37.42
32759;BME280;19125;52.360;9.974;2023-04-05T09:22:07;86715.13;;;-145.17;36.53
32759;BME280;19125;52.360;9.974;2023-04-05T09:24:35;86762.78;;;-145.17;35.40
32759;BME280;19125;52.360;9.974;2023-04-05T09:27:05;86748.88;;;-145.17;34.40
32759;BME280;19125;52.360;9.974;2023-04-05T09:29:31;86683.38;;;-145.17;33.98
32759;BME280;19125;52.360;9.974;2023-04-05T09:31:56;86705.22;;;-145.17;33.54
32759;BME280;19125;52.360;9.974;2023-04-05T09:34:22;86685.38;;;-145.17;33.61
32759;BME280;19125;52.360;9.974;2023-04-05T09:36:48;86691.31;;;-145.17;32.87
32759;BME280;19125;52.360;9.974;2023-04-05T09:39:13;86697.28;;;-145.17;32.44
32759;BME280;19125;52.360;9.974;2023-04-05T09:42:06;86711.16;;;-145.17;31.62
32759;BME280;19125;52.360;9.974;2023-04-05T09:47:17;86723.06;;;-145.17;32.65
32759;BME280;19125;52.360;9.974;2023-04-05T09:49:43;86695.28;;;-145.17;32.38
32759;BME280;19125;52.360;9.974;2023-04-05T09:54:47;86663.53;;;-145.17;32.21
32759;BME280;19125;52.360;9.974;2023-04-05T09:57:14;86659.56;;;-145.17;31.81
32759;BME280;19125;52.360;9.974;2023-04-05T09:59:39;86635.75;;;-145.17;31.31
32759;BME280;19125;52.360;9.974;2023-04-05T10:02:05;86582.16;;;-145.17;30.43
32759;BME280;19125;52.360;9.974;2023-04-05T10:04:45;86655.59;;;-145.17;30.01
32759;BME280;19125;52.360;9.974;2023-04-05T10:07:15;86572.25;;;-145.17;29.65
32759;BME280;19125;52.360;9.974;2023-04-05T10:09:42;86574.22;;;-145.17;29.29
32759;BME280;19125;52.360;9.974;2023-04-05T10:12:10;86580.19;;;-145.17;28.47
32759;BME280;19125;52.360;9.974;2023-04-05T10:14:37;86484.94;;;-145.17;27.58
32759;BME280;19125;52.360;9.974;2023-04-05T10:17:07;86520.66;;;-145.17;27.51
32759;BME280;19125;52.360;9.974;2023-04-05T10:22:22;86433.31;;;-145.17;25.28
32759;BME280;19125;52.360;9.974;2023-04-05T10:24:51;86443.25;;;-145.17;25.46
32759;BME280;19125;52.360;9.974;2023-04-05T10:27:35;86417.44;;;-145.17;26.32
32759;BME280;19125;52.360;9.974;2023-04-05T10:30:05;86477.00;;;-145.17;26.57
32759;BME280;19125;52.360;9.974;2023-04-05T10:32:56;86461.09;;;-145.17;26.79
32759;BME280;19125;52.360;9.974;2023-04-05T10:38:23;86445.25;;;-145.17;26.66
32759;BME280;19125;52.360;9.974;2023-04-05T10:40:53;86417.44;;;-145.17;26.53
32759;BME280;19125;52.360;9.974;2023-04-05T10:43:24;86397.59;;;-145.17;26.26
32759;BME280;19125;52.360;9.974;2023-04-05T10:45:53;86437.28;;;-145.17;25.71
32759;BME280;19125;52.360;9.974;2023-04-05T10:48:45;86409.50;;;-145.17;25.83
32759;BME280;19125;52.360;9.974;2023-04-05T10:51:14;86477.00;;;-145.17;25.45
32759;BME280;19125;52.360;9.974;2023-04-05T10:53:40;86449.19;;;-145.17;26.02
32759;BME280;19125;52.360;9.974;2023-04-05T10:56:06;86427.38;;;-145.17;26.77
32759;BME280;19125;52.360;9.974;2023-04-05T10:58:33;86413.47;;;-145.17;26.61
32759;BME280;19125;52.360;9.974;2023-04-05T11:01:00;86423.41;;;-145.17;26.67
32759;BME280;19125;52.360;9.974;2023-04-05T11:06:19;86367.84;;;-145.17;26.79
32759;BME280;19125;52.360;9.974;2023-04-05T11:08:46;86348.00;;;-145.17;26.22
32759;BME280;19125;52.360;9.974;2023-04-05T11:11:17;86316.25;;;-145.17;25.41
32759;BME280;19125;52.360;9.974;2023-04-05T11:13:48;86369.81;;;-145.17;24.80
32759;BME280;19125;52.360;9.974;2023-04-05T11:16:13;86363.88;;;-145.17;25.72
32759;BME280;19125;52.360;9.974;2023-04-05T11:18:44;86357.91;;;-145.17;26.04
32759;BME280;19125;52.360;9.974;2023-04-05T11:21:10;86326.16;;;-145.17;25.82
32759;BME280;19125;52.360;9.974;2023-04-05T11:29:05;86234.88;;;-145.17;25.59
32759;BME280;19125;52.360;9.974;2023-04-05T11:31:31;86306.31;;;-145.17;25.14
32759;BME280;19125;52.360;9.974;2023-04-05T11:34:03;86274.56;;;-145.17;25.07
32759;BME280;19125;52.360;9.974;2023-04-05T11:36:53;86306.31;;;-145.17;24.63
32759;BME280;19125;52.360;9.974;2023-04-05T11:41:57;86268.63;;;-145.17;23.83
32759;BME280;19125;52.360;9.974;2023-04-05T11:44:23;86308.31;;;-145.17;23.84
32759;BME280;19125;52.360;9.974;2023-04-05T11:46:50;86332.13;;;-145.17;23.70
32759;BME280;19125;52.360;9.974;2023-04-05T11:49:16;86381.72;;;-145.17;24.15
32759;BME280;19125;52.360;9.974;2023-04-05T11:51:41;86385.69;;;-145.17;24.65
32759;BME280;19125;52.360;9.974;2023-04-05T11:54:10;86413.47;;;-145.17;24.82
32759;BME280;19125;52.360;9.974;2023-04-05T11:56:36;86395.63;;;-145.17;25.40
32759;BME280;19125;52.360;9.974;2023-04-05T11:59:02;86413.47;;;-145.17;25.89
32759;BME280;19125;52.360;9.974;2023-04-05T12:01:27;86409.50;;;-145.17;26.03
32759;BME280;19125;52.360;9.974;2023-04-05T12:03:54;86403.56;;;-145.17;25.58
32759;BME280;19125;52.360;9.974;2023-04-05T12:06:24;86361.88;;;-145.17;25.15
32759;BME280;19125;52.360;9.974;2023-04-05T12:08:52;86340.06;;;-145.17;25.05
32759;BME280;19125;52.360;9.974;2023-04-05T12:11:27;86357.91;;;-145.17;24.11
32759;BME280;19125;52.360;9.974;2023-04-05T12:13:56;86353.94;;;-145.17;24.19
32759;BME280;19125;52.360;9.974;2023-04-05T12:16:23;86330.13;;;-145.17;24.14
32759;BME280;19125;52.360;9.974;2023-04-05T12:19:06;86316.25;;;-145.17;24.36
32759;BME280;19125;52.360;9.974;2023-04-05T12:21:32;86330.13;;;-145.17;24.31
32759;BME280;19125;52.360;9.974;2023-04-05T12:23:57;86320.22;;;-145.17;24.61
32759;BME280;19125;52.360;9.974;2023-04-05T12:26:23;86359.91;;;-145.17;24.66
32759;BME280;19125;52.360;9.974;2023-04-05T12:28:58;86312.28;;;-145.17;24.72
32759;BME280;19125;52.360;9.974;2023-04-05T12:31:45;86330.13;;;-145.17;24.81
32759;BME280;19125;52.360;9.974;2023-04-05T12:34:12;86252.75;;;-145.17;24.52
32759;BME280;19125;52.360;9.974;2023-04-05T12:36:43;86256.72;;;-145.17;24.45
32759;BME280;19125;52.360;9.974;2023-04-05T12:39:09;86165.44;;;-145.17;24.21
32759;BME280;19125;52.360;9.974;2023-04-05T12:41:35;86215.03;;;-145.17;23.39
32759;BME280;19125;52.360;9.974;2023-04-05T12:44:27;86153.53;;;-145.17;23.24
32759;BME280;19125;52.360;9.974;2023-04-05T12:46:59;86151.53;;;-145.17;23.18
32759;BME280;19125;52.360;9.974;2023-04-05T12:49:26;86189.25;;;-145.17;23.48
32759;BME280;19125;52.360;9.974;2023-04-05T12:51:52;86137.66;;;-145.17;23.30
32759;BME280;19125;52.360;9.974;2023-04-05T12:54:21;86157.50;;;-145.17;22.88
32759;BME280;19125;52.360;9.974;2023-04-05T12:56:50;86195.19;;;-145.17;23.16
32759;BME280;19125;52.360;9.974;2023-04-05T12:59:17;86181.31;;;-145.17;23.38
32759;BME280;19125;52.360;9.974;2023-04-05T13:01:42;86213.06;;;-145.17;23.48
32759;BME280;19125;52.360;9.974;2023-04-05T13:04:07;86215.03;;;-145.17;22.96
32759;BME280;19125;52.360;9.974;2023-04-05T13:06:33;86201.16;;;-145.17;22.66
32759;BME280;19125;52.360;9.974;2023-04-05T13:08:58;86234.88;;;-145.17;23.14
32759;BME280;19125;52.360;9.974;2023-04-05T13:11:25;86207.09;;;-145.17;23.41
32759;BME280;19125;52.360;9.974;2023-04-05T13:13:51;86250.75;;;-145.17;23.62